createdAt,value
2022-10-21T00:00:54.330Z,22.25
2022-10-21T00:03:23.590Z,21.98
2022-10-21T00:05:51.870Z,16.73
2022-10-21T00:08:19.993Z,15.57
2022-10-21T00:10:56.255Z,27.73
2022-10-21T00:13:24.915Z,20.55
2022-10-21T00:16:00.957Z,22.70
2022-10-21T00:18:29.021Z,26.10
2022-10-21T00:20:56.639Z,29.13
2022-10-21T00:23:24.372Z,22.63
2022-10-21T00:25:59.097Z,21.95
2022-10-21T00:28:27.019Z,20.60
2022-10-21T00:30:55.186Z,25.00
2022-10-21T00:33:24.016Z,24.52
2022-10-21T00:36:02.079Z,22.38
2022-10-21T00:38:31.252Z,19.10
2022-10-21T00:40:59.237Z,21.10
2022-10-21T00:43:27.296Z,21.67
2022-10-21T00:46:04.533Z,24.63
2022-10-21T00:48:37.948Z,20.95
2022-10-21T00:51:15.895Z,25.80
2022-10-21T00:53:46.931Z,21.33
2022-10-21T00:56:24.100Z,19.45
2022-10-21T00:58:53.588Z,20.48
2022-10-21T01:03:51.905Z,20.48
2022-10-21T01:06:23.351Z,20.65
2022-10-21T01:08:53.923Z,26.48
2022-10-21T01:11:22.886Z,24.45
2022-10-21T01:13:55.876Z,28.52
2022-10-21T01:16:52.660Z,32.10
2022-10-21T01:19:52.108Z,23.88
2022-10-21T01:26:00.568Z,20.27
2022-10-21T01:28:39.638Z,17.45
2022-10-21T01:31:34.334Z,22.40
2022-10-21T01:34:18.311Z,18.70
2022-10-21T01:37:25.221Z,21.73
2022-10-21T01:40:01.381Z,18.58
2022-10-21T01:43:03.031Z,22.52
2022-10-21T01:45:46.549Z,22.10
2022-10-21T01:48:25.008Z,19.13
2022-10-21T01:51:01.048Z,25.25
2022-10-21T01:53:34.199Z,24.02
2022-10-21T01:56:03.545Z,20.08
2022-10-21T01:58:35.338Z,20.58
2022-10-21T02:01:05.809Z,22.60
2022-10-21T02:03:38.649Z,20.25
2022-10-21T02:06:06.026Z,23.55
2022-10-21T02:08:34.039Z,16.55
2022-10-21T02:11:07.385Z,21.67
2022-10-21T02:14:02.463Z,23.83
2022-10-21T02:16:35.173Z,20.42
2022-10-21T02:19:02.468Z,27.05
2022-10-21T02:21:34.470Z,24.65
2022-10-21T02:24:46.751Z,29.45
2022-10-21T02:27:14.104Z,26.48
2022-10-21T02:29:45.102Z,19.77
2022-10-21T02:32:49.230Z,27.52
2022-10-21T02:35:54.505Z,22.90
2022-10-21T02:38:58.191Z,24.20
2022-10-21T02:41:27.631Z,26.42
2022-10-21T02:44:03.638Z,25.83
2022-10-21T02:46:41.356Z,22.88
2022-10-21T02:49:09.183Z,23.55
2022-10-21T02:51:36.809Z,34.10
2022-10-21T02:54:04.127Z,24.38
2022-10-21T02:56:31.399Z,19.80
2022-10-21T02:58:58.564Z,24.83
2022-10-21T03:01:25.832Z,27.95
2022-10-21T03:03:53.043Z,20.35
2022-10-21T03:06:20.732Z,17.48
2022-10-21T03:08:48.017Z,21.50
2022-10-21T03:11:15.161Z,25.98
2022-10-21T03:13:42.312Z,23.00
2022-10-21T03:16:09.671Z,34.38
2022-10-21T03:18:37.007Z,31.15
2022-10-21T03:21:04.423Z,33.17
2022-10-21T03:23:31.549Z,37.22
2022-10-21T03:25:58.823Z,37.78
2022-10-21T03:28:26.185Z,41.03
2022-10-21T03:30:54.862Z,42.75
2022-10-21T03:33:22.211Z,40.00
2022-10-21T03:35:49.483Z,53.22
2022-10-21T03:38:16.675Z,44.88
2022-10-21T03:40:44.020Z,46.40
2022-10-21T03:43:11.403Z,41.42
2022-10-21T03:45:38.688Z,45.53
2022-10-21T03:48:06.208Z,48.28
2022-10-21T03:50:33.975Z,54.72
2022-10-21T03:53:09.946Z,55.75
2022-10-21T03:55:41.612Z,47.28
2022-10-21T03:58:08.981Z,34.83
2022-10-21T04:00:36.206Z,34.20
2022-10-21T04:03:03.821Z,36.05
2022-10-21T04:05:31.102Z,35.90
2022-10-21T04:07:58.487Z,32.10
2022-10-21T04:10:25.633Z,30.42
2022-10-21T04:12:52.994Z,29.35
2022-10-21T04:15:20.291Z,32.13
2022-10-21T04:17:47.795Z,30.85
2022-10-21T04:20:14.905Z,35.15
2022-10-21T04:22:42.181Z,40.13
2022-10-21T04:25:09.882Z,31.48
2022-10-21T04:27:37.467Z,35.58
2022-10-21T04:30:06.417Z,38.10
2022-10-21T04:32:34.189Z,30.35
2022-10-21T04:35:01.496Z,31.73
2022-10-21T04:37:28.891Z,29.92
2022-10-21T04:39:56.833Z,31.83
2022-10-21T04:42:24.095Z,32.00
2022-10-21T04:44:51.432Z,26.23
2022-10-21T04:47:18.606Z,23.95
2022-10-21T04:49:45.808Z,19.00
2022-10-21T04:52:13.160Z,22.55
2022-10-21T04:54:40.436Z,23.10
2022-10-21T04:57:07.658Z,24.48
2022-10-21T04:59:34.837Z,26.50
2022-10-21T05:04:29.187Z,29.35
2022-10-21T05:06:56.380Z,29.08
2022-10-21T05:09:23.581Z,33.03
2022-10-21T05:11:50.821Z,40.83
2022-10-21T05:14:21.668Z,28.67
2022-10-21T05:16:50.199Z,28.63
2022-10-21T05:19:17.883Z,27.48
2022-10-21T05:21:46.583Z,31.50
2022-10-21T05:24:16.235Z,37.22
2022-10-21T05:26:43.400Z,29.95
2022-10-21T05:29:10.683Z,31.95
2022-10-21T05:31:39.061Z,51.47
2022-10-21T05:34:06.287Z,33.17
2022-10-21T05:36:33.567Z,37.53
2022-10-21T05:39:01.120Z,26.50
2022-10-21T05:41:28.290Z,70.30
2022-10-21T05:43:55.524Z,77.90
2022-10-21T05:46:22.955Z,25.67
2022-10-21T05:48:50.147Z,22.20
2022-10-21T05:51:17.758Z,27.38
2022-10-21T05:53:44.853Z,21.08
2022-10-21T05:56:12.000Z,20.73
2022-10-21T05:58:39.182Z,20.13
2022-10-21T06:01:06.527Z,23.98
2022-10-21T06:03:34.472Z,26.88
2022-10-21T06:06:05.590Z,22.65
2022-10-21T06:08:35.803Z,25.08
2022-10-21T06:11:10.218Z,28.90
2022-10-21T06:13:38.401Z,43.35
2022-10-21T06:16:07.490Z,46.13
2022-10-21T06:21:02.351Z,32.42
2022-10-21T06:23:29.974Z,24.98
2022-10-21T06:26:05.756Z,24.40
2022-10-21T06:28:36.576Z,25.48
2022-10-21T06:31:05.269Z,40.50
2022-10-21T06:33:33.201Z,32.55
2022-10-21T06:36:00.588Z,38.38
2022-10-21T06:38:28.021Z,29.23
2022-10-21T06:41:09.264Z,28.02
2022-10-21T06:43:39.820Z,30.80
2022-10-21T06:46:11.889Z,25.30
2022-10-21T06:48:39.408Z,25.50
2022-10-21T06:51:11.638Z,30.80
2022-10-21T06:53:39.457Z,32.53
2022-10-21T06:56:17.170Z,22.73
2022-10-21T06:58:47.541Z,25.02
2022-10-21T07:01:34.910Z,29.45
2022-10-21T07:04:10.274Z,23.42
2022-10-21T07:06:37.940Z,24.57
2022-10-21T07:09:07.972Z,21.33
2022-10-21T07:11:35.451Z,14.80
2022-10-21T07:14:03.445Z,18.42
2022-10-21T07:16:34.187Z,13.40
2022-10-21T07:19:02.067Z,24.15
2022-10-21T07:21:31.050Z,32.28
2022-10-21T07:23:59.885Z,18.33
2022-10-21T07:26:30.416Z,23.48
2022-10-21T07:29:00.018Z,30.67
2022-10-21T07:31:31.106Z,16.85
2022-10-21T07:34:00.750Z,19.30
2022-10-21T07:36:31.323Z,24.00
2022-10-21T07:39:02.365Z,18.52
2022-10-21T07:41:37.346Z,15.98
2022-10-21T07:44:06.700Z,22.88
2022-10-21T07:49:01.468Z,15.82
2022-10-21T07:51:31.350Z,14.40
2022-10-21T07:54:00.390Z,13.00
2022-10-21T07:56:32.716Z,23.88
2022-10-21T07:59:01.044Z,16.30
2022-10-21T08:01:28.850Z,16.83
2022-10-21T08:03:57.857Z,14.05
2022-10-21T08:06:27.014Z,18.35
2022-10-21T08:08:56.878Z,13.30
2022-10-21T08:11:30.472Z,14.13
2022-10-21T08:13:58.854Z,10.75
2022-10-21T08:16:26.733Z,13.23
2022-10-21T08:18:54.892Z,27.73
2022-10-21T08:21:22.261Z,16.10
2022-10-21T08:23:49.436Z,13.35
2022-10-21T08:26:16.750Z,26.27
2022-10-21T08:28:44.841Z,20.38
2022-10-21T08:31:19.008Z,17.83
2022-10-21T08:33:46.887Z,18.23
2022-10-21T08:36:21.124Z,12.00
2022-10-21T08:38:49.110Z,10.93
2022-10-21T08:41:30.234Z,8.40
2022-10-21T08:44:06.304Z,9.98
2022-10-21T08:46:41.063Z,13.23
2022-10-21T08:49:41.344Z,19.15
2022-10-21T08:52:18.743Z,8.82
2022-10-21T08:54:57.777Z,13.07
2022-10-21T08:57:25.357Z,13.13
2022-10-21T08:59:53.686Z,18.60
2022-10-21T09:02:49.613Z,18.00
2022-10-21T09:07:59.159Z,23.83
2022-10-21T09:10:51.011Z,8.07
2022-10-21T09:13:38.203Z,12.20
2022-10-21T09:16:37.542Z,13.20
2022-10-21T09:19:23.452Z,7.32
2022-10-21T09:22:39.657Z,6.88
2022-10-21T09:25:45.790Z,14.88
2022-10-21T09:28:15.374Z,11.70
2022-10-21T09:30:44.469Z,10.27
2022-10-21T09:33:34.054Z,10.38
2022-10-21T09:36:10.619Z,9.50
2022-10-21T09:39:04.490Z,13.55
2022-10-21T09:41:44.203Z,8.07
2022-10-21T09:44:18.859Z,9.55
2022-10-21T09:46:48.365Z,4.72
2022-10-21T09:52:22.518Z,9.30
2022-10-21T09:54:49.848Z,8.57
2022-10-21T09:57:42.029Z,7.32
2022-10-21T10:00:12.901Z,13.32
2022-10-21T10:02:45.085Z,7.20
2022-10-21T10:05:35.438Z,6.40
2022-10-21T10:08:33.605Z,5.32
2022-10-21T10:11:08.352Z,12.32
2022-10-21T10:13:51.098Z,6.70
2022-10-21T10:16:32.517Z,10.43
2022-10-21T10:19:22.105Z,8.60
2022-10-21T10:22:28.081Z,14.40
2022-10-21T10:25:23.461Z,10.90
2022-10-21T10:28:16.203Z,6.78
2022-10-21T10:30:43.339Z,21.02
2022-10-21T10:33:19.075Z,5.35
2022-10-21T10:35:55.469Z,16.10
2022-10-21T10:38:52.967Z,6.18
2022-10-21T10:41:20.841Z,6.20
2022-10-21T10:43:52.682Z,9.43
2022-10-21T10:46:26.581Z,4.28
2022-10-21T10:48:56.065Z,5.35
2022-10-21T10:51:32.510Z,5.63
2022-10-21T10:54:18.421Z,5.78
2022-10-21T10:57:13.688Z,7.25
2022-10-21T10:59:50.815Z,4.18
2022-10-21T11:02:41.089Z,13.88
2022-10-21T11:05:26.303Z,12.13
2022-10-21T11:08:03.336Z,15.23
2022-10-21T11:10:47.501Z,4.68
2022-10-21T11:13:18.155Z,6.78
2022-10-21T11:16:25.259Z,19.70
2022-10-21T11:19:24.969Z,5.43
2022-10-21T11:21:55.278Z,5.90
2022-10-21T11:25:04.620Z,9.00
2022-10-21T11:28:19.159Z,11.25
2022-10-21T11:31:16.930Z,9.02
2022-10-21T11:33:56.269Z,18.00
2022-10-21T11:37:02.326Z,10.32
2022-10-21T11:39:35.074Z,10.30
2022-10-21T11:42:22.471Z,9.80
2022-10-21T11:45:34.832Z,7.45
2022-10-21T11:48:30.298Z,7.43
2022-10-21T11:51:11.541Z,8.48
2022-10-21T11:54:13.847Z,10.82
2022-10-21T11:57:16.876Z,9.40
2022-10-21T12:00:17.040Z,5.45
2022-10-21T12:03:28.333Z,11.13
2022-10-21T12:06:03.038Z,8.95
2022-10-21T12:08:50.773Z,6.05
2022-10-21T12:11:49.165Z,12.35
2022-10-21T12:14:47.176Z,4.55
2022-10-21T12:17:19.820Z,9.25
2022-10-21T12:20:05.850Z,7.95
2022-10-21T12:22:34.207Z,4.70
2022-10-21T12:25:16.672Z,8.40
2022-10-21T12:28:09.554Z,6.30
2022-10-21T12:31:13.230Z,7.90
2022-10-21T12:33:44.369Z,11.23
2022-10-21T12:36:25.058Z,8.40
2022-10-21T12:38:57.153Z,7.45
2022-10-21T12:41:24.302Z,9.88
2022-10-21T12:44:04.644Z,7.30
2022-10-21T12:47:00.087Z,6.65
2022-10-21T12:49:35.825Z,6.00
2022-10-21T12:52:08.165Z,7.95
2022-10-21T12:54:52.571Z,10.63
2022-10-21T12:57:39.841Z,9.50
2022-10-21T13:00:22.222Z,6.70
2022-10-21T13:03:02.860Z,8.38
2022-10-21T13:05:39.255Z,7.22
2022-10-21T13:08:28.061Z,4.35
2022-10-21T13:11:04.221Z,8.75
2022-10-21T13:13:37.018Z,11.05
2022-10-21T13:16:29.305Z,4.88
2022-10-21T13:19:16.083Z,14.48
2022-10-21T13:21:48.867Z,10.50
2022-10-21T13:24:24.446Z,4.18
2022-10-21T13:26:55.285Z,3.67
2022-10-21T13:29:55.189Z,4.03
2022-10-21T13:32:35.528Z,7.10
2022-10-21T13:35:21.215Z,5.90
2022-10-21T13:38:02.956Z,4.97
2022-10-21T13:40:37.415Z,4.38
2022-10-21T13:43:18.727Z,13.27
2022-10-21T13:45:56.329Z,7.22
2022-10-21T13:48:26.725Z,3.65
2022-10-21T13:50:53.992Z,4.32
2022-10-21T13:53:28.716Z,6.18
2022-10-21T13:56:05.428Z,4.50
2022-10-21T13:58:38.840Z,9.27
2022-10-21T14:01:11.796Z,4.05
2022-10-21T14:03:41.468Z,4.80
2022-10-21T14:06:14.551Z,7.47
2022-10-21T14:08:46.109Z,13.52
2022-10-21T14:11:22.136Z,3.75
2022-10-21T14:13:50.882Z,9.93
2022-10-21T14:16:30.925Z,11.10
2022-10-21T14:19:00.343Z,8.02
2022-10-21T14:21:30.578Z,8.70
2022-10-21T14:23:57.975Z,8.85
2022-10-21T14:26:30.556Z,6.95
2022-10-21T14:29:00.565Z,6.57
2022-10-21T14:31:28.635Z,7.93
2022-10-21T14:33:55.951Z,9.93
2022-10-21T14:36:25.459Z,5.93
2022-10-21T14:39:06.041Z,8.80
2022-10-21T14:41:41.240Z,7.57
2022-10-21T14:44:20.168Z,4.82
2022-10-21T14:46:53.132Z,6.78
2022-10-21T14:49:44.760Z,13.13
2022-10-21T14:52:38.462Z,6.15
2022-10-21T14:55:28.266Z,6.97
2022-10-21T14:58:15.405Z,7.97
2022-10-21T15:00:42.985Z,5.07
2022-10-21T15:03:11.713Z,6.15
2022-10-21T15:05:48.534Z,8.73
2022-10-21T15:08:19.020Z,6.05
2022-10-21T15:10:55.849Z,9.73
2022-10-21T15:13:25.033Z,12.48
2022-10-21T15:18:38.844Z,13.70
2022-10-21T15:21:13.143Z,9.13
2022-10-21T15:23:54.315Z,8.10
2022-10-21T15:26:36.552Z,15.60
2022-10-21T15:29:28.177Z,7.07
2022-10-21T15:31:56.964Z,14.30
2022-10-21T15:34:24.612Z,8.95
2022-10-21T15:36:52.263Z,11.52
2022-10-21T15:39:20.872Z,19.67
2022-10-21T15:41:53.164Z,14.23
2022-10-21T15:44:30.862Z,16.40
2022-10-21T15:47:01.854Z,13.40
2022-10-21T15:49:42.537Z,16.40
2022-10-21T15:52:10.236Z,10.18
2022-10-21T15:54:37.421Z,9.70
2022-10-21T15:57:19.042Z,12.52
2022-10-21T15:59:46.707Z,25.67
2022-10-21T16:02:17.153Z,9.73
2022-10-21T16:04:45.197Z,18.48
2022-10-21T16:07:32.518Z,6.80
2022-10-21T16:10:00.477Z,11.73
2022-10-21T16:12:27.929Z,14.98
2022-10-21T16:14:55.423Z,13.70
2022-10-21T16:17:23.692Z,8.25
2022-10-21T16:19:50.774Z,10.15
2022-10-21T16:22:22.342Z,8.80
2022-10-21T16:24:49.531Z,9.32
2022-10-21T16:27:31.069Z,15.57
2022-10-21T16:30:28.386Z,15.63
2022-10-21T16:32:56.758Z,16.88
2022-10-21T16:35:24.717Z,19.23
2022-10-21T16:37:52.583Z,15.52
2022-10-21T16:40:26.958Z,21.45
2022-10-21T16:42:54.725Z,17.50
2022-10-21T16:45:28.112Z,23.05
2022-10-21T16:47:59.057Z,23.20
2022-10-21T16:50:46.628Z,30.08
2022-10-21T16:53:16.979Z,18.30
2022-10-21T16:55:45.510Z,22.17
2022-10-21T16:58:14.314Z,24.48
2022-10-21T17:00:42.764Z,23.73
2022-10-21T17:03:12.064Z,21.65
2022-10-21T17:05:39.713Z,30.67
2022-10-21T17:08:06.925Z,24.73
2022-10-21T17:10:34.322Z,30.00
2022-10-21T17:13:01.613Z,27.67
2022-10-21T17:15:29.025Z,27.25
2022-10-21T17:17:56.357Z,23.80
2022-10-21T17:20:23.712Z,30.85
2022-10-21T17:22:50.852Z,56.13
2022-10-21T17:25:18.142Z,25.33
2022-10-21T17:27:45.537Z,21.30
2022-10-21T17:30:12.972Z,20.98
2022-10-21T17:32:40.147Z,22.65
2022-10-21T17:35:16.449Z,39.53
2022-10-21T17:37:50.989Z,47.97
2022-10-21T17:40:22.461Z,39.08
2022-10-21T17:42:50.294Z,41.97
2022-10-21T17:45:19.359Z,35.83
2022-10-21T17:47:46.843Z,41.40
2022-10-21T17:50:14.430Z,54.85
2022-10-21T17:52:42.921Z,33.58
2022-10-21T17:55:10.269Z,96.50
2022-10-21T17:57:37.506Z,49.50
2022-10-21T18:00:05.817Z,43.53
2022-10-21T18:02:33.539Z,42.08
2022-10-21T18:05:01.634Z,38.17
2022-10-21T18:07:29.206Z,26.35
2022-10-21T18:09:56.441Z,23.83
2022-10-21T18:12:24.020Z,20.95
2022-10-21T18:14:51.498Z,10.85
2022-10-21T18:17:19.970Z,20.90
2022-10-21T18:19:47.702Z,24.10
2022-10-21T18:22:15.289Z,18.40
2022-10-21T18:24:42.443Z,24.08
2022-10-21T18:27:10.796Z,20.55
2022-10-21T18:29:38.022Z,23.20
2022-10-21T18:32:05.251Z,27.45
2022-10-21T18:34:32.376Z,41.67
2022-10-21T18:36:59.590Z,33.15
2022-10-21T18:39:26.897Z,29.88
2022-10-21T18:41:54.328Z,43.72
2022-10-21T18:44:22.280Z,32.40
2022-10-21T18:46:52.389Z,33.97
2022-10-21T18:49:22.458Z,32.15
2022-10-21T18:51:49.674Z,31.27
2022-10-21T18:54:16.948Z,24.55
2022-10-21T18:56:45.001Z,32.08
2022-10-21T18:59:12.503Z,26.92
2022-10-21T19:01:40.027Z,21.65
2022-10-21T19:04:07.684Z,18.63
2022-10-21T19:06:47.146Z,19.40
2022-10-21T19:09:21.323Z,23.33
2022-10-21T19:11:48.841Z,22.80
2022-10-21T19:14:16.399Z,16.83
2022-10-21T19:16:45.279Z,13.40
2022-10-21T19:19:15.094Z,16.65
2022-10-21T19:21:42.655Z,19.83
2022-10-21T19:24:10.263Z,19.75
2022-10-21T19:26:39.843Z,20.15
2022-10-21T19:29:15.517Z,18.52
2022-10-21T19:31:43.902Z,16.30
2022-10-21T19:34:20.255Z,14.98
2022-10-21T19:36:48.019Z,13.98
2022-10-21T19:39:15.756Z,20.42
2022-10-21T19:41:43.208Z,18.77
2022-10-21T19:44:10.509Z,20.00
2022-10-21T19:46:38.779Z,18.40
2022-10-21T19:49:08.140Z,20.35
2022-10-21T19:54:08.535Z,18.90
2022-10-21T19:56:35.855Z,21.00
2022-10-21T19:59:04.428Z,14.02
2022-10-21T20:01:33.346Z,20.20
2022-10-21T20:04:01.937Z,26.67
2022-10-21T20:06:33.113Z,26.17
2022-10-21T20:09:05.584Z,19.77
2022-10-21T20:11:32.994Z,20.05
2022-10-21T20:14:00.903Z,17.38
2022-10-21T20:16:32.255Z,26.05
2022-10-21T20:19:01.612Z,13.43
2022-10-21T20:23:58.561Z,21.15
2022-10-21T20:26:27.999Z,13.60
2022-10-21T20:31:23.085Z,15.70
2022-10-21T20:33:51.433Z,17.52
2022-10-21T20:36:26.460Z,19.77
2022-10-21T20:38:57.413Z,26.33
2022-10-21T20:41:30.308Z,17.58
2022-10-21T20:43:57.565Z,17.15
2022-10-21T20:46:25.950Z,19.25
2022-10-21T20:48:55.077Z,15.05
2022-10-21T20:51:25.844Z,23.95
2022-10-21T20:53:59.263Z,14.07
2022-10-21T20:56:32.892Z,14.93
2022-10-21T20:59:01.993Z,21.35
2022-10-21T21:01:33.952Z,15.77
2022-10-21T21:04:05.413Z,15.77
2022-10-21T21:06:51.360Z,17.88
2022-10-21T21:12:08.246Z,16.83
2022-10-21T21:14:35.639Z,15.30
2022-10-21T21:17:03.152Z,45.15
2022-10-21T21:19:30.517Z,19.58
2022-10-21T21:21:57.630Z,15.07
2022-10-21T21:24:24.883Z,15.88
2022-10-21T21:26:52.092Z,16.30
2022-10-21T21:29:19.246Z,16.30
2022-10-21T21:31:46.442Z,16.10
2022-10-21T21:34:14.148Z,15.80
2022-10-21T21:36:41.219Z,14.93
2022-10-21T21:39:10.375Z,12.68
2022-10-21T21:41:37.602Z,12.05
2022-10-21T21:44:05.762Z,15.48
2022-10-21T21:46:33.421Z,14.95
2022-10-21T21:49:05.609Z,9.85
2022-10-21T21:51:35.801Z,13.75
2022-10-21T21:54:04.829Z,12.77
2022-10-21T21:56:31.960Z,22.63
2022-10-21T21:58:59.202Z,15.73
2022-10-21T22:01:28.774Z,17.33
2022-10-21T22:03:57.358Z,12.43
2022-10-21T22:06:29.766Z,18.53
2022-10-21T22:08:57.773Z,22.88
2022-10-21T22:11:29.088Z,15.68
2022-10-21T22:13:56.581Z,10.70
2022-10-21T22:16:29.462Z,12.98
2022-10-21T22:18:59.867Z,17.63
2022-10-21T22:21:29.742Z,11.35
2022-10-21T22:23:57.122Z,17.60
2022-10-21T22:26:25.999Z,10.00
2022-10-21T22:28:53.690Z,14.32
2022-10-21T22:31:25.760Z,15.80
2022-10-21T22:33:56.467Z,12.27
2022-10-21T22:36:23.709Z,13.73
2022-10-21T22:38:50.837Z,8.18
2022-10-21T22:41:18.062Z,9.43
2022-10-21T22:43:45.232Z,7.75
2022-10-21T22:46:29.267Z,7.15
2022-10-21T22:48:56.821Z,10.27
2022-10-21T22:51:23.963Z,10.40
2022-10-21T22:53:55.295Z,11.48
2022-10-21T22:56:25.568Z,9.75
2022-10-21T22:58:53.063Z,9.30
2022-10-21T23:01:20.526Z,6.32
2022-10-21T23:03:47.689Z,11.20
2022-10-21T23:06:15.004Z,14.32
2022-10-21T23:08:42.182Z,15.18
2022-10-21T23:11:09.356Z,12.55
2022-10-21T23:13:36.472Z,10.38
2022-10-21T23:16:04.162Z,17.67
2022-10-21T23:18:32.501Z,12.73
2022-10-21T23:20:59.759Z,11.27
2022-10-21T23:23:26.869Z,10.57
2022-10-21T23:25:53.907Z,7.43
2022-10-21T23:28:21.125Z,9.45
2022-10-21T23:30:48.404Z,10.57
2022-10-21T23:33:15.565Z,11.40
2022-10-21T23:35:42.676Z,14.68
2022-10-21T23:38:09.742Z,9.10
2022-10-21T23:40:36.879Z,13.18
2022-10-21T23:43:04.280Z,14.85
2022-10-21T23:45:31.440Z,13.10
2022-10-21T23:47:58.708Z,14.23
2022-10-21T23:50:26.675Z,11.05
2022-10-21T23:52:54.142Z,15.65
2022-10-21T23:55:21.324Z,13.90
2022-10-21T23:57:48.442Z,9.68
